sensor_id;sensor_type;location;lat;lon;timestamp;pressure;altitude;pressure_sealevel;temperature;humidity
62864;BME280;48954;59.950;11.014;2023-04-10T00:00:27;100894.89;;;4.22;59.09
62864;BME280;48954;59.950;11.014;2023-04-10T00:03:14;100893.29;;;4.19;59.32
62864;BME280;48954;59.950;11.014;2023-04-10T00:05:39;100889.37;;;4.18;59.30
62864;BME280;48954;59.950;11.014;2023-04-10T00:08:05;100885.29;;;4.15;59.62
62864;BME280;48954;59.950;11.014;2023-04-10T00:10:31;100880.03;;;4.12;59.80
62864;BME280;48954;59.950;11.014;2023-04-10T00:12:57;100881.23;;;4.11;59.86
62864;BME280;48954;59.950;11.014;2023-04-10T00:15:23;100879.39;;;4.11;59.98
62864;BME280;48954;59.950;11.014;2023-04-10T00:17:48;100875.43;;;4.09;59.97
62864;BME280;48954;59.950;11.014;2023-04-10T00:20:14;100875.89;;;4.06;60.13
62864;BME280;48954;59.950;11.014;2023-04-10T00:22:40;100872.69;;;4.05;60.24
62864;BME280;48954;59.950;11.014;2023-04-10T00:25:06;100868.10;;;4.02;60.47
62864;BME280;48954;59.950;11.014;2023-04-10T00:27:32;100865.09;;;3.99;60.79
62864;BME280;48954;59.950;11.014;2023-04-10T00:29:58;100868.27;;;3.98;61.02
62864;BME280;48954;59.950;11.014;2023-04-10T00:32:24;100859.08;;;3.95;61.02
62864;BME280;48954;59.950;11.014;2023-04-10T00:34:50;100855.84;;;3.91;60.98
62864;BME280;48954;59.950;11.014;2023-04-10T00:37:16;100857.73;;;3.85;61.42
62864;BME280;48954;59.950;11.014;2023-04-10T00:39:41;100858.07;;;3.82;61.48
62864;BME280;48954;59.950;11.014;2023-04-10T00:42:07;100855.89;;;3.81;61.64
62864;BME280;48954;59.950;11.014;2023-04-10T00:44:33;100856.61;;;3.79;61.80
62864;BME280;48954;59.950;11.014;2023-04-10T00:46:59;100856.45;;;3.79;61.78
62864;BME280;48954;59.950;11.014;2023-04-10T00:49:24;100852.21;;;3.80;61.77
62864;BME280;48954;59.950;11.014;2023-04-10T00:51:52;100854.27;;;3.80;61.99
62864;BME280;48954;59.950;11.014;2023-04-10T00:54:19;100852.46;;;3.81;62.18
62864;BME280;48954;59.950;11.014;2023-04-10T00:56:45;100856.49;;;3.81;62.19
62864;BME280;48954;59.950;11.014;2023-04-10T00:59:11;100852.32;;;3.79;62.41
62864;BME280;48954;59.950;11.014;2023-04-10T01:01:37;100858.43;;;3.77;62.54
62864;BME280;48954;59.950;11.014;2023-04-10T01:04:03;100854.65;;;3.76;63.00
62864;BME280;48954;59.950;11.014;2023-04-10T01:09:40;100855.55;;;3.73;63.02
62864;BME280;48954;59.950;11.014;2023-04-10T01:12:24;100849.36;;;3.72;63.01
62864;BME280;48954;59.950;11.014;2023-04-10T01:15:03;100845.67;;;3.70;63.58
62864;BME280;48954;59.950;11.014;2023-04-10T01:18:07;100846.89;;;3.67;63.71
62864;BME280;48954;59.950;11.014;2023-04-10T01:20:38;100846.92;;;3.64;63.79
62864;BME280;48954;59.950;11.014;2023-04-10T01:23:34;100852.42;;;3.63;64.15
62864;BME280;48954;59.950;11.014;2023-04-10T01:26:07;100850.02;;;3.60;64.38
62864;BME280;48954;59.950;11.014;2023-04-10T01:28:55;100846.98;;;3.57;64.56
62864;BME280;48954;59.950;11.014;2023-04-10T01:34:16;100852.14;;;3.53;65.03
62864;BME280;48954;59.950;11.014;2023-04-10T01:36:49;100852.35;;;3.52;65.25
62864;BME280;48954;59.950;11.014;2023-04-10T01:39:18;100847.47;;;3.52;65.45
62864;BME280;48954;59.950;11.014;2023-04-10T01:41:45;100848.73;;;3.51;65.49
62864;BME280;48954;59.950;11.014;2023-04-10T01:44:13;100846.90;;;3.50;65.72
62864;BME280;48954;59.950;11.014;2023-04-10T01:46:42;100845.61;;;3.47;65.68
62864;BME280;48954;59.950;11.014;2023-04-10T01:49:09;100850.75;;;3.46;66.04
62864;BME280;48954;59.950;11.014;2023-04-10T01:51:36;100846.29;;;3.46;66.38
62864;BME280;48954;59.950;11.014;2023-04-10T01:54:02;100845.96;;;3.45;66.36
62864;BME280;48954;59.950;11.014;2023-04-10T01:56:31;100847.71;;;3.44;66.56
62864;BME280;48954;59.950;11.014;2023-04-10T01:58:58;100847.39;;;3.43;66.71
62864;BME280;48954;59.950;11.014;2023-04-10T02:01:24;100854.23;;;3.44;66.74
62864;BME280;48954;59.950;11.014;2023-04-10T02:03:50;100852.92;;;3.44;66.90
62864;BME280;48954;59.950;11.014;2023-04-10T02:06:48;100850.20;;;3.45;67.14
62864;BME280;48954;59.950;11.014;2023-04-10T02:09:27;100854.27;;;3.46;67.31
62864;BME280;48954;59.950;11.014;2023-04-10T02:12:07;100849.02;;;3.46;67.47
62864;BME280;48954;59.950;11.014;2023-04-10T02:14:40;100851.46;;;3.44;67.47
62864;BME280;48954;59.950;11.014;2023-04-10T02:17:08;100850.16;;;3.43;67.82
62864;BME280;48954;59.950;11.014;2023-04-10T02:19:36;100852.19;;;3.41;68.00
62864;BME280;48954;59.950;11.014;2023-04-10T02:22:04;100847.58;;;3.40;67.90
62864;BME280;48954;59.950;11.014;2023-04-10T02:24:30;100848.19;;;3.38;67.94
62864;BME280;48954;59.950;11.014;2023-04-10T02:26:56;100844.88;;;3.38;68.22
62864;BME280;48954;59.950;11.014;2023-04-10T02:29:22;100842.45;;;3.37;68.19
62864;BME280;48954;59.950;11.014;2023-04-10T02:31:49;100838.55;;;3.36;68.39
62864;BME280;48954;59.950;11.014;2023-04-10T02:34:15;100837.25;;;3.36;68.57
62864;BME280;48954;59.950;11.014;2023-04-10T02:36:40;100834.52;;;3.35;68.53
62864;BME280;48954;59.950;11.014;2023-04-10T02:39:06;100829.46;;;3.35;68.71
62864;BME280;48954;59.950;11.014;2023-04-10T02:41:32;100825.98;;;3.34;68.82
62864;BME280;48954;59.950;11.014;2023-04-10T02:43:58;100824.20;;;3.34;68.86
62864;BME280;48954;59.950;11.014;2023-04-10T02:46:24;100818.16;;;3.33;69.30
62864;BME280;48954;59.950;11.014;2023-04-10T02:48:51;100811.80;;;3.33;68.97
62864;BME280;48954;59.950;11.014;2023-04-10T02:51:17;100806.73;;;3.33;69.43
62864;BME280;48954;59.950;11.014;2023-04-10T02:53:43;100804.02;;;3.33;69.23
62864;BME280;48954;59.950;11.014;2023-04-10T02:56:09;100801.85;;;3.32;69.41
62864;BME280;48954;59.950;11.014;2023-04-10T02:58:34;100799.96;;;3.30;69.49
62864;BME280;48954;59.950;11.014;2023-04-10T03:01:00;100798.23;;;3.27;69.81
62864;BME280;48954;59.950;11.014;2023-04-10T03:03:26;100798.10;;;3.25;69.70
62864;BME280;48954;59.950;11.014;2023-04-10T03:05:52;100797.35;;;3.24;70.25
62864;BME280;48954;59.950;11.014;2023-04-10T03:08:18;100793.61;;;3.24;70.20
62864;BME280;48954;59.950;11.014;2023-04-10T03:10:45;100791.66;;;3.23;70.29
62864;BME280;48954;59.950;11.014;2023-04-10T03:13:11;100790.48;;;3.21;70.38
62864;BME280;48954;59.950;11.014;2023-04-10T03:15:37;100790.70;;;3.20;70.61
62864;BME280;48954;59.950;11.014;2023-04-10T03:18:03;100794.68;;;3.19;70.61
62864;BME280;48954;59.950;11.014;2023-04-10T03:20:32;100796.75;;;3.18;70.67
62864;BME280;48954;59.950;11.014;2023-04-10T03:22:58;100797.41;;;3.17;70.82
62864;BME280;48954;59.950;11.014;2023-04-10T03:25:24;100797.86;;;3.15;71.03
62864;BME280;48954;59.950;11.014;2023-04-10T03:27:50;100795.91;;;3.13;71.00
62864;BME280;48954;59.950;11.014;2023-04-10T03:30:16;100790.08;;;3.11;70.80
62864;BME280;48954;59.950;11.014;2023-04-10T03:32:42;100791.84;;;3.08;70.97
62864;BME280;48954;59.950;11.014;2023-04-10T03:35:09;100788.92;;;3.05;71.27
62864;BME280;48954;59.950;11.014;2023-04-10T03:37:35;100789.20;;;3.04;71.34
62864;BME280;48954;59.950;11.014;2023-04-10T03:40:06;100787.48;;;3.02;71.22
62864;BME280;48954;59.950;11.014;2023-04-10T03:42:32;100783.79;;;3.00;71.37
62864;BME280;48954;59.950;11.014;2023-04-10T03:44:58;100780.28;;;2.98;71.51
62864;BME280;48954;59.950;11.014;2023-04-10T03:47:23;100781.05;;;2.97;71.56
62864;BME280;48954;59.950;11.014;2023-04-10T03:49:49;100780.20;;;2.96;71.66
62864;BME280;48954;59.950;11.014;2023-04-10T03:52:15;100775.59;;;2.95;71.70
62864;BME280;48954;59.950;11.014;2023-04-10T03:54:41;100772.77;;;2.94;71.90
62864;BME280;48954;59.950;11.014;2023-04-10T03:57:07;100771.31;;;2.91;72.00
62864;BME280;48954;59.950;11.014;2023-04-10T03:59:32;100773.81;;;2.91;72.19
62864;BME280;48954;59.950;11.014;2023-04-10T04:01:58;100770.34;;;2.91;72.00
62864;BME280;48954;59.950;11.014;2023-04-10T04:04:24;100764.74;;;2.89;72.25
62864;BME280;48954;59.950;11.014;2023-04-10T04:06:50;100759.20;;;2.89;72.07
62864;BME280;48954;59.950;11.014;2023-04-10T04:09:15;100757.36;;;2.88;72.09
62864;BME280;48954;59.950;11.014;2023-04-10T04:11:41;100758.02;;;2.87;72.40
62864;BME280;48954;59.950;11.014;2023-04-10T04:14:07;100759.48;;;2.86;72.60
62864;BME280;48954;59.950;11.014;2023-04-10T04:16:33;100759.77;;;2.86;72.35
62864;BME280;48954;59.950;11.014;2023-04-10T04:18:59;100757.51;;;2.85;72.73
62864;BME280;48954;59.950;11.014;2023-04-10T04:21:24;100758.84;;;2.86;72.71
62864;BME280;48954;59.950;11.014;2023-04-10T04:23:50;100759.20;;;2.84;72.61
62864;BME280;48954;59.950;11.014;2023-04-10T04:26:16;100755.30;;;2.81;72.86
62864;BME280;48954;59.950;11.014;2023-04-10T04:28:42;100758.36;;;2.80;72.87
62864;BME280;48954;59.950;11.014;2023-04-10T04:31:07;100751.08;;;2.80;73.00
62864;BME280;48954;59.950;11.014;2023-04-10T04:33:33;100748.48;;;2.78;73.00
62864;BME280;48954;59.950;11.014;2023-04-10T04:35:59;100746.95;;;2.78;73.20
62864;BME280;48954;59.950;11.014;2023-04-10T04:38:25;100742.73;;;2.77;73.08
62864;BME280;48954;59.950;11.014;2023-04-10T04:40:51;100741.38;;;2.78;73.34
62864;BME280;48954;59.950;11.014;2023-04-10T04:43:16;100738.54;;;2.77;73.40
62864;BME280;48954;59.950;11.014;2023-04-10T04:45:42;100735.77;;;2.75;73.38
62864;BME280;48954;59.950;11.014;2023-04-10T04:48:08;100733.35;;;2.74;73.44
62864;BME280;48954;59.950;11.014;2023-04-10T04:50:34;100736.61;;;2.73;73.37
62864;BME280;48954;59.950;11.014;2023-04-10T04:53:00;100733.50;;;2.72;73.39
62864;BME280;48954;59.950;11.014;2023-04-10T04:55:25;100731.71;;;2.70;73.44
62864;BME280;48954;59.950;11.014;2023-04-10T04:57:52;100728.35;;;2.68;73.59
62864;BME280;48954;59.950;11.014;2023-04-10T05:00:17;100725.06;;;2.64;73.72
62864;BME280;48954;59.950;11.014;2023-04-10T05:02:44;100723.33;;;2.63;73.75
62864;BME280;48954;59.950;11.014;2023-04-10T05:05:10;100724.31;;;2.62;73.85
62864;BME280;48954;59.950;11.014;2023-04-10T05:07:36;100726.43;;;2.61;74.05
62864;BME280;48954;59.950;11.014;2023-04-10T05:10:02;100725.02;;;2.61;74.23
62864;BME280;48954;59.950;11.014;2023-04-10T05:12:28;100724.98;;;2.60;73.94
62864;BME280;48954;59.950;11.014;2023-04-10T05:14:53;100724.13;;;2.60;74.26
62864;BME280;48954;59.950;11.014;2023-04-10T05:17:19;100721.19;;;2.60;74.16
62864;BME280;48954;59.950;11.014;2023-04-10T05:19:45;100722.39;;;2.59;74.32
62864;BME280;48954;59.950;11.014;2023-04-10T05:22:11;100719.23;;;2.60;74.23
62864;BME280;48954;59.950;11.014;2023-04-10T05:24:37;100718.67;;;2.61;74.30
62864;BME280;48954;59.950;11.014;2023-04-10T05:27:03;100718.67;;;2.60;74.27
62864;BME280;48954;59.950;11.014;2023-04-10T05:29:28;100718.17;;;2.61;74.48
62864;BME280;48954;59.950;11.014;2023-04-10T05:31:55;100713.94;;;2.63;74.81
62864;BME280;48954;59.950;11.014;2023-04-10T05:34:21;100709.42;;;2.64;74.55
62864;BME280;48954;59.950;11.014;2023-04-10T05:36:46;100711.04;;;2.65;74.56
62864;BME280;48954;59.950;11.014;2023-04-10T05:39:12;100705.72;;;2.65;74.64
62864;BME280;48954;59.950;11.014;2023-04-10T05:41:38;100705.66;;;2.65;74.75
62864;BME280;48954;59.950;11.014;2023-04-10T05:44:04;100702.40;;;2.65;74.73
62864;BME280;48954;59.950;11.014;2023-04-10T05:46:29;100698.16;;;2.65;74.87
62864;BME280;48954;59.950;11.014;2023-04-10T05:48:55;100695.23;;;2.64;74.82
62864;BME280;48954;59.950;11.014;2023-04-10T05:51:21;100698.66;;;2.63;75.01
62864;BME280;48954;59.950;11.014;2023-04-10T05:53:47;100698.94;;;2.63;75.29
62864;BME280;48954;59.950;11.014;2023-04-10T05:56:13;100697.47;;;2.63;75.22
62864;BME280;48954;59.950;11.014;2023-04-10T05:58:39;100697.31;;;2.62;75.44
62864;BME280;48954;59.950;11.014;2023-04-10T06:01:05;100695.79;;;2.62;75.39
62864;BME280;48954;59.950;11.014;2023-04-10T06:03:30;100692.86;;;2.62;75.62
62864;BME280;48954;59.950;11.014;2023-04-10T06:05:56;100691.65;;;2.65;75.76
62864;BME280;48954;59.950;11.014;2023-04-10T06:08:23;100690.21;;;2.70;75.62
62864;BME280;48954;59.950;11.014;2023-04-10T06:10:48;100695.59;;;2.74;75.61
62864;BME280;48954;59.950;11.014;2023-04-10T06:13:14;100691.27;;;2.78;75.76
62864;BME280;48954;59.950;11.014;2023-04-10T06:15:40;100691.46;;;2.82;75.82
62864;BME280;48954;59.950;11.014;2023-04-10T06:18:06;100693.80;;;2.86;75.88
62864;BME280;48954;59.950;11.014;2023-04-10T06:20:32;100695.09;;;2.87;75.69
62864;BME280;48954;59.950;11.014;2023-04-10T06:22:58;100700.30;;;2.89;75.86
62864;BME280;48954;59.950;11.014;2023-04-10T06:25:24;100691.69;;;2.92;75.93
62864;BME280;48954;59.950;11.014;2023-04-10T06:27:49;100690.54;;;2.95;75.92
62864;BME280;48954;59.950;11.014;2023-04-10T06:30:15;100690.02;;;2.97;75.88
62864;BME280;48954;59.950;11.014;2023-04-10T06:32:41;100686.84;;;2.99;75.88
62864;BME280;48954;59.950;11.014;2023-04-10T06:35:07;100684.80;;;3.01;75.90
62864;BME280;48954;59.950;11.014;2023-04-10T06:37:33;100684.48;;;3.01;75.77
62864;BME280;48954;59.950;11.014;2023-04-10T06:40:07;100686.42;;;3.02;75.93
62864;BME280;48954;59.950;11.014;2023-04-10T06:42:34;100683.43;;;3.03;76.16
62864;BME280;48954;59.950;11.014;2023-04-10T06:45:00;100685.27;;;3.03;75.95
62864;BME280;48954;59.950;11.014;2023-04-10T06:47:26;100685.50;;;3.02;76.32
62864;BME280;48954;59.950;11.014;2023-04-10T06:49:52;100686.09;;;3.03;75.97
62864;BME280;48954;59.950;11.014;2023-04-10T06:52:17;100685.33;;;3.03;76.34
62864;BME280;48954;59.950;11.014;2023-04-10T06:54:43;100691.58;;;3.03;76.08
62864;BME280;48954;59.950;11.014;2023-04-10T06:57:09;100686.30;;;3.04;76.26
62864;BME280;48954;59.950;11.014;2023-04-10T06:59:35;100683.73;;;3.06;76.22
62864;BME280;48954;59.950;11.014;2023-04-10T07:02:02;100683.29;;;3.08;76.25
62864;BME280;48954;59.950;11.014;2023-04-10T07:04:28;100681.98;;;3.09;76.22
62864;BME280;48954;59.950;11.014;2023-04-10T07:06:54;100685.08;;;3.07;76.27
62864;BME280;48954;59.950;11.014;2023-04-10T07:09:19;100680.15;;;3.05;76.39
62864;BME280;48954;59.950;11.014;2023-04-10T07:11:45;100680.05;;;3.03;76.33
62864;BME280;48954;59.950;11.014;2023-04-10T07:14:11;100678.25;;;3.04;76.39
62864;BME280;48954;59.950;11.014;2023-04-10T07:16:37;100677.27;;;3.06;76.60
62864;BME280;48954;59.950;11.014;2023-04-10T07:19:03;100671.76;;;3.08;76.56
62864;BME280;48954;59.950;11.014;2023-04-10T07:21:28;100674.95;;;3.10;76.57
62864;BME280;48954;59.950;11.014;2023-04-10T07:23:54;100674.75;;;3.12;76.34
62864;BME280;48954;59.950;11.014;2023-04-10T07:26:20;100670.65;;;3.15;76.67
62864;BME280;48954;59.950;11.014;2023-04-10T07:28:46;100667.31;;;3.17;76.48
62864;BME280;48954;59.950;11.014;2023-04-10T07:31:12;100667.95;;;3.18;76.63
62864;BME280;48954;59.950;11.014;2023-04-10T07:33:38;100669.19;;;3.21;76.65
62864;BME280;48954;59.950;11.014;2023-04-10T07:36:04;100668.89;;;3.23;76.60
62864;BME280;48954;59.950;11.014;2023-04-10T07:38:31;100663.45;;;3.26;76.62
62864;BME280;48954;59.950;11.014;2023-04-10T07:40:58;100659.61;;;3.30;76.63
62864;BME280;48954;59.950;11.014;2023-04-10T07:43:24;100659.95;;;3.34;76.69
62864;BME280;48954;59.950;11.014;2023-04-10T07:45:50;100660.24;;;3.37;76.70
62864;BME280;48954;59.950;11.014;2023-04-10T07:48:16;100661.92;;;3.42;76.60
62864;BME280;48954;59.950;11.014;2023-04-10T07:50:42;100661.55;;;3.46;76.80
62864;BME280;48954;59.950;11.014;2023-04-10T07:53:08;100663.81;;;3.49;76.54
62864;BME280;48954;59.950;11.014;2023-04-10T07:55:37;100665.39;;;3.49;76.84
62864;BME280;48954;59.950;11.014;2023-04-10T07:58:03;100663.15;;;3.52;76.81
62864;BME280;48954;59.950;11.014;2023-04-10T08:00:31;100662.42;;;3.53;76.67
62864;BME280;48954;59.950;11.014;2023-04-10T08:02:57;100662.47;;;3.51;76.56
62864;BME280;48954;59.950;11.014;2023-04-10T08:05:23;100660.44;;;3.49;76.43
62864;BME280;48954;59.950;11.014;2023-04-10T08:07:49;100662.51;;;3.49;76.72
62864;BME280;48954;59.950;11.014;2023-04-10T08:10:14;100662.79;;;3.51;76.88
62864;BME280;48954;59.950;11.014;2023-04-10T08:12:40;100664.56;;;3.53;76.89
62864;BME280;48954;59.950;11.014;2023-04-10T08:15:07;100666.30;;;3.54;76.81
62864;BME280;48954;59.950;11.014;2023-04-10T08:17:33;100661.34;;;3.54;76.95
62864;BME280;48954;59.950;11.014;2023-04-10T08:20:10;100661.02;;;3.53;76.88
62864;BME280;48954;59.950;11.014;2023-04-10T08:22:37;100659.09;;;3.56;77.04
62864;BME280;48954;59.950;11.014;2023-04-10T08:25:03;100656.52;;;3.58;76.99
62864;BME280;48954;59.950;11.014;2023-04-10T08:27:30;100657.72;;;3.62;77.10
62864;BME280;48954;59.950;11.014;2023-04-10T08:29:56;100659.17;;;3.67;77.08
62864;BME280;48954;59.950;11.014;2023-04-10T08:32:21;100663.70;;;3.71;77.35
62864;BME280;48954;59.950;11.014;2023-04-10T08:34:48;100661.27;;;3.75;77.18
62864;BME280;48954;59.950;11.014;2023-04-10T08:37:14;100666.38;;;3.78;77.27
62864;BME280;48954;59.950;11.014;2023-04-10T08:39:40;100664.71;;;3.80;77.10
62864;BME280;48954;59.950;11.014;2023-04-10T08:42:06;100661.92;;;3.81;77.27
62864;BME280;48954;59.950;11.014;2023-04-10T08:44:32;100659.85;;;3.82;77.31
62864;BME280;48954;59.950;11.014;2023-04-10T08:46:59;100658.95;;;3.80;77.05
62864;BME280;48954;59.950;11.014;2023-04-10T08:52:20;100643.73;;;3.78;77.23
62864;BME280;48954;59.950;11.014;2023-04-10T08:54:48;100631.05;;;3.78;77.14
62864;BME280;48954;59.950;11.014;2023-04-10T08:57:16;100630.91;;;3.80;77.15
62864;BME280;48954;59.950;11.014;2023-04-10T08:59:42;100630.27;;;3.85;77.20
62864;BME280;48954;59.950;11.014;2023-04-10T09:02:08;100625.98;;;3.91;77.23
62864;BME280;48954;59.950;11.014;2023-04-10T09:04:34;100623.84;;;4.00;77.25
62864;BME280;48954;59.950;11.014;2023-04-10T09:07:02;100618.08;;;4.11;77.34
62864;BME280;48954;59.950;11.014;2023-04-10T09:09:28;100609.93;;;4.23;77.24
62864;BME280;48954;59.950;11.014;2023-04-10T09:14:20;100604.79;;;4.54;77.20
62864;BME280;48954;59.950;11.014;2023-04-10T09:16:47;100601.27;;;4.75;77.35
62864;BME280;48954;59.950;11.014;2023-04-10T09:19:28;100597.92;;;4.91;77.21
62864;BME280;48954;59.950;11.014;2023-04-10T09:21:55;100594.46;;;5.04;76.96
62864;BME280;48954;59.950;11.014;2023-04-10T09:24:25;100594.68;;;5.16;76.96
62864;BME280;48954;59.950;11.014;2023-04-10T09:26:51;100593.63;;;5.27;76.84
62864;BME280;48954;59.950;11.014;2023-04-10T09:29:17;100592.23;;;5.34;76.61
62864;BME280;48954;59.950;11.014;2023-04-10T09:31:43;100591.70;;;5.41;76.59
62864;BME280;48954;59.950;11.014;2023-04-10T09:34:22;100587.15;;;5.45;76.21
62864;BME280;48954;59.950;11.014;2023-04-10T09:36:55;100584.65;;;5.49;76.14
62864;BME280;48954;59.950;11.014;2023-04-10T09:39:36;100580.45;;;5.52;76.10
62864;BME280;48954;59.950;11.014;2023-04-10T09:42:02;100579.61;;;5.58;76.04
62864;BME280;48954;59.950;11.014;2023-04-10T09:44:33;100579.64;;;5.67;75.93
62864;BME280;48954;59.950;11.014;2023-04-10T09:47:19;100576.11;;;5.78;75.72
62864;BME280;48954;59.950;11.014;2023-04-10T09:49:48;100570.98;;;5.98;75.62
62864;BME280;48954;59.950;11.014;2023-04-10T09:52:31;100571.34;;;6.23;75.72
62864;BME280;48954;59.950;11.014;2023-04-10T09:54:59;100566.59;;;6.49;75.41
62864;BME280;48954;59.950;11.014;2023-04-10T09:57:27;100561.05;;;6.68;75.07
62864;BME280;48954;59.950;11.014;2023-04-10T09:59:56;100550.45;;;6.78;74.86
62864;BME280;48954;59.950;11.014;2023-04-10T10:02:23;100550.94;;;6.93;74.55
62864;BME280;48954;59.950;11.014;2023-04-10T10:04:50;100543.02;;;7.10;74.34
62864;BME280;48954;59.950;11.014;2023-04-10T10:07:21;100538.73;;;7.29;74.03
62864;BME280;48954;59.950;11.014;2023-04-10T10:09:50;100531.95;;;7.49;73.83
62864;BME280;48954;59.950;11.014;2023-04-10T10:12:43;100525.42;;;7.66;73.59
62864;BME280;48954;59.950;11.014;2023-04-10T10:15:21;100518.63;;;7.80;73.20
62864;BME280;48954;59.950;11.014;2023-04-10T10:17:58;100517.63;;;7.92;72.91
62864;BME280;48954;59.950;11.014;2023-04-10T10:20:30;100508.64;;;8.04;72.48
62864;BME280;48954;59.950;11.014;2023-04-10T10:22:57;100509.19;;;8.26;72.22
62864;BME280;48954;59.950;11.014;2023-04-10T10:25:24;100508.84;;;8.48;71.72
62864;BME280;48954;59.950;11.014;2023-04-10T10:30:27;100496.65;;;9.02;70.84
62864;BME280;48954;59.950;11.014;2023-04-10T10:32:55;100500.41;;;9.21;70.44
62864;BME280;48954;59.950;11.014;2023-04-10T10:35:22;100494.21;;;9.38;69.78
62864;BME280;48954;59.950;11.014;2023-04-10T10:37:52;100498.56;;;9.54;69.76
62864;BME280;48954;59.950;11.014;2023-04-10T10:40:23;100492.98;;;9.63;69.20
62864;BME280;48954;59.950;11.014;2023-04-10T10:42:54;100485.04;;;9.77;68.99
62864;BME280;48954;59.950;11.014;2023-04-10T10:48:12;100473.59;;;10.68;68.32
62864;BME280;48954;59.950;11.014;2023-04-10T10:50:52;100471.05;;;10.93;67.36
62864;BME280;48954;59.950;11.014;2023-04-10T10:53:44;100465.69;;;11.33;66.92
62864;BME280;48954;59.950;11.014;2023-04-10T10:58:54;100457.80;;;12.13;65.30
62864;BME280;48954;59.950;11.014;2023-04-10T11:01:20;100452.58;;;12.10;64.54
62864;BME280;48954;59.950;11.014;2023-04-10T11:03:47;100451.02;;;12.02;63.95
62864;BME280;48954;59.950;11.014;2023-04-10T11:06:17;100447.24;;;11.99;63.90
62864;BME280;48954;59.950;11.014;2023-04-10T11:08:45;100440.88;;;12.08;63.59
62864;BME280;48954;59.950;11.014;2023-04-10T11:11:16;100432.92;;;12.09;62.94
62864;BME280;48954;59.950;11.014;2023-04-10T11:16:15;100423.98;;;11.98;62.27
62864;BME280;48954;59.950;11.014;2023-04-10T11:21:11;100414.95;;;11.85;61.78
62864;BME280;48954;59.950;11.014;2023-04-10T11:29:02;100410.52;;;11.74;58.57
62864;BME280;48954;59.950;11.014;2023-04-10T11:31:29;100405.83;;;11.79;57.37
62864;BME280;48954;59.950;11.014;2023-04-10T11:36:21;100399.10;;;12.04;56.81
62864;BME280;48954;59.950;11.014;2023-04-10T11:39:06;100398.14;;;12.19;57.29
62864;BME280;48954;59.950;11.014;2023-04-10T11:41:33;100389.07;;;12.40;56.70
62864;BME280;48954;59.950;11.014;2023-04-10T11:44:04;100387.45;;;12.58;54.80
62864;BME280;48954;59.950;11.014;2023-04-10T11:46:30;100386.10;;;12.57;53.26
62864;BME280;48954;59.950;11.014;2023-04-10T11:49:02;100380.73;;;12.46;53.01
62864;BME280;48954;59.950;11.014;2023-04-10T11:51:29;100377.45;;;12.42;53.23
62864;BME280;48954;59.950;11.014;2023-04-10T11:54:13;100378.05;;;12.44;53.88
62864;BME280;48954;59.950;11.014;2023-04-10T11:56:43;100372.70;;;12.31;53.50
62864;BME280;48954;59.950;11.014;2023-04-10T11:59:10;100374.34;;;12.22;52.81
62864;BME280;48954;59.950;11.014;2023-04-10T12:01:36;100370.05;;;12.24;52.59
62864;BME280;48954;59.950;11.014;2023-04-10T12:04:02;100354.14;;;12.17;52.25
62864;BME280;48954;59.950;11.014;2023-04-10T12:06:28;100354.60;;;12.04;52.69
62864;BME280;48954;59.950;11.014;2023-04-10T12:08:55;100348.23;;;11.96;52.32
62864;BME280;48954;59.950;11.014;2023-04-10T12:11:25;100344.59;;;11.92;52.46
62864;BME280;48954;59.950;11.014;2023-04-10T12:14:05;100337.85;;;11.79;51.93
62864;BME280;48954;59.950;11.014;2023-04-10T12:16:31;100331.69;;;11.70;51.94
62864;BME280;48954;59.950;11.014;2023-04-10T12:18:57;100327.21;;;11.71;52.12
62864;BME280;48954;59.950;11.014;2023-04-10T12:21:29;100324.30;;;11.67;51.99
62864;BME280;48954;59.950;11.014;2023-04-10T12:24:10;100319.76;;;11.54;50.59
62864;BME280;48954;59.950;11.014;2023-04-10T12:26:37;100316.56;;;11.47;51.08
62864;BME280;48954;59.950;11.014;2023-04-10T12:29:03;100310.61;;;11.51;51.41
62864;BME280;48954;59.950;11.014;2023-04-10T12:31:34;100306.75;;;11.53;50.71
62864;BME280;48954;59.950;11.014;2023-04-10T12:34:02;100301.27;;;11.51;50.30
62864;BME280;48954;59.950;11.014;2023-04-10T12:36:51;100302.71;;;11.52;50.54
62864;BME280;48954;59.950;11.014;2023-04-10T12:39:26;100294.29;;;11.52;50.52
62864;BME280;48954;59.950;11.014;2023-04-10T12:41:52;100290.48;;;11.54;50.06
62864;BME280;48954;59.950;11.014;2023-04-10T12:44:21;100282.52;;;11.54;49.34
62864;BME280;48954;59.950;11.014;2023-04-10T12:46:47;100273.48;;;11.55;49.64
62864;BME280;48954;59.950;11.014;2023-04-10T12:49:16;100274.19;;;11.57;49.29
62864;BME280;48954;59.950;11.014;2023-04-10T12:51:50;100263.71;;;11.57;48.80
62864;BME280;48954;59.950;11.014;2023-04-10T12:54:35;100257.90;;;11.58;48.90
62864;BME280;48954;59.950;11.014;2023-04-10T12:57:01;100247.51;;;11.66;48.63
62864;BME280;48954;59.950;11.014;2023-04-10T12:59:29;100240.84;;;11.79;48.61
62864;BME280;48954;59.950;11.014;2023-04-10T13:01:55;100235.00;;;11.91;48.53
62864;BME280;48954;59.950;11.014;2023-04-10T13:04:21;100230.13;;;11.95;48.17
62864;BME280;48954;59.950;11.014;2023-04-10T13:06:48;100227.93;;;11.98;48.25
62864;BME280;48954;59.950;11.014;2023-04-10T13:09:14;100220.52;;;12.04;47.90
62864;BME280;48954;59.950;11.014;2023-04-10T13:11:43;100215.35;;;12.08;48.13
62864;BME280;48954;59.950;11.014;2023-04-10T13:14:10;100214.11;;;12.13;48.15
62864;BME280;48954;59.950;11.014;2023-04-10T13:16:37;100211.14;;;12.14;47.86
62864;BME280;48954;59.950;11.014;2023-04-10T13:19:03;100212.77;;;12.09;47.14
62864;BME280;48954;59.950;11.014;2023-04-10T13:21:29;100211.41;;;12.02;47.49
62864;BME280;48954;59.950;11.014;2023-04-10T13:23:57;100200.08;;;11.99;47.69